Time;durP1;ratioP1;P1;durP2;ratioP2;P2;SDS_P1;SDS_P2;PMS_P1;PMS_P2;Temp;Humidity;BMP_temperature;BMP_pressure;BME280_temperature;BME280_humidity;BME280_pressure;Samples;Min_cycle;Max_cycle;Signal;HPM_P1;HPM_P2
2023/09/03 00:01:11;;;;;;;;;;;15.70;99.90;;;;;;5101941;28;20325;-66
2023/09/03 00:03:38;;;;;;;;;;;15.80;99.90;;;;;;5104625;28;20321;-66
2023/09/03 00:06:04;;;;;;;;;;;16.00;99.90;;;;;;5108397;28;19919;-65
2023/09/03 00:08:31;;;;;;;;;;;16.10;99.90;;;;;;5112730;28;19952;-67
2023/09/03 00:10:58;;;;;;;;;;;16.20;99.90;;;;;;5112717;28;19918;-65
2023/09/03 00:13:25;;;;;;;;;;;16.30;99.90;;;;;;5106546;27;20303;-67
2023/09/03 00:15:51;;;;;;;;;;;16.40;99.90;;;;;;5107540;28;19920;-66
2023/09/03 00:18:18;;;;;;;;;;;16.50;99.90;;;;;;5111045;28;20221;-66
2023/09/03 00:20:57;;;;;;;;;;;16.60;99.90;;;;;;5099684;28;19919;-67
2023/09/03 00:23:24;;;;;;;;;;;16.70;99.80;;;;;;5107412;28;20429;-66
2023/09/03 00:25:51;;;;;;;;;;;16.70;99.90;;;;;;5107948;28;19927;-66
2023/09/03 00:28:18;;;;;;;;;;;16.70;99.90;;;;;;5109363;28;19970;-66
2023/09/03 00:30:44;;;;;;;;;;;16.70;99.60;;;;;;5107514;28;19914;-68
2023/09/03 00:33:11;;;;;;;;;;;16.70;99.40;;;;;;5109389;27;19911;-66
2023/09/03 00:35:40;;;;;;;;;;;16.80;99.20;;;;;;5103245;28;20314;-67
2023/09/03 00:38:07;;;;;;;;;;;17.00;99.30;;;;;;5106395;28;19916;-65
2023/09/03 00:40:40;;;;;;;;;;;17.20;98.90;;;;;;5106570;28;19973;-68
2023/09/03 00:43:07;;;;;;;;;;;17.30;98.80;;;;;;5105317;28;20007;-67
2023/09/03 00:45:34;;;;;;;;;;;17.40;98.80;;;;;;5110021;28;19916;-66
2023/09/03 00:48:00;;;;;;;;;;;17.30;99.10;;;;;;5106426;28;19924;-67
2023/09/03 00:50:27;;;;;;;;;;;17.40;99.20;;;;;;5109524;28;20233;-66
2023/09/03 00:52:55;;;;;;;;;;;17.50;99.40;;;;;;5110872;28;20396;-66
2023/09/03 00:55:23;;;;;;;;;;;17.60;99.40;;;;;;5110976;28;19908;-68
2023/09/03 00:57:49;;;;;;;;;;;17.80;99.10;;;;;;5107468;28;19947;-66
2023/09/03 01:00:16;;;;;;;;;;;17.90;98.70;;;;;;5109881;28;20407;-65
2023/09/03 01:02:44;;;;;;;;;;;18.00;98.20;;;;;;5107922;28;19919;-66
2023/09/03 01:05:12;;;;;;;;;;;18.10;98.30;;;;;;5110202;28;19931;-70
2023/09/03 01:07:39;;;;;;;;;;;18.40;98.10;;;;;;5110104;28;20015;-67
2023/09/03 01:10:06;;;;;;;;;;;18.60;97.90;;;;;;5110317;28;19960;-65
2023/09/03 01:12:38;;;;;;;;;;;18.90;97.60;;;;;;5110443;28;19912;-68
2023/09/03 01:15:14;;;;;;;;;;;19.00;97.20;;;;;;5109709;28;20423;-67
2023/09/03 01:17:51;;;;;;;;;;;19.20;97.60;;;;;;5108511;28;19918;-67
2023/09/03 01:20:19;;;;;;;;;;;19.40;97.40;;;;;;5108424;28;20089;-66
2023/09/03 01:23:18;;;;;;;;;;;19.60;97.30;;;;;;5109682;28;19951;-66
2023/09/03 01:25:54;;;;;;;;;;;19.80;97.00;;;;;;5061908;28;19926;-67
2023/09/03 01:28:38;;;;;;;;;;;20.00;95.70;;;;;;5103108;28;19912;-68
2023/09/03 01:31:16;;;;;;;;;;;20.20;95.30;;;;;;5104078;28;19919;-66
2023/09/03 01:33:43;;;;;;;;;;;20.30;95.20;;;;;;5106927;28;19986;-67
2023/09/03 01:36:11;;;;;;;;;;;20.40;94.80;;;;;;5110755;28;19908;-68
2023/09/03 01:38:38;;;;;;;;;;;20.20;94.50;;;;;;5105807;28;19915;-67
2023/09/03 01:41:05;;;;;;;;;;;20.00;94.60;;;;;;5105531;28;20316;-67
2023/09/03 01:43:31;;;;;;;;;;;19.80;94.90;;;;;;5096229;28;19912;-68
2023/09/03 01:46:05;;;;;;;;;;;19.60;95.00;;;;;;5108486;28;19931;-67
2023/09/03 01:48:37;;;;;;;;;;;19.50;95.60;;;;;;5112116;28;19908;-67
2023/09/03 01:51:07;;;;;;;;;;;19.30;95.60;;;;;;5112408;28;19912;-67
2023/09/03 01:53:39;;;;;;;;;;;19.10;95.80;;;;;;5111101;28;19919;-66
2023/09/03 01:56:06;;;;;;;;;;;19.00;96.30;;;;;;5093997;28;20006;-67
2023/09/03 01:58:35;;;;;;;;;;;19.10;96.70;;;;;;5111861;28;19961;-66
2023/09/03 02:01:02;;;;;;;;;;;19.00;97.00;;;;;;5111874;28;19908;-67
2023/09/03 02:03:30;;;;;;;;;;;19.00;97.00;;;;;;5111733;28;19960;-66
2023/09/03 02:05:57;;;;;;;;;;;19.10;97.00;;;;;;5111290;28;19915;-68
2023/09/03 02:08:23;;;;;;;;;;;19.10;96.50;;;;;;5104114;28;19950;-67
2023/09/03 02:10:51;;;;;;;;;;;19.10;96.40;;;;;;5113796;27;19908;-67
2023/09/03 02:13:17;;;;;;;;;;;19.20;96.30;;;;;;5115527;28;19911;-67
2023/09/03 02:15:44;;;;;;;;;;;19.10;96.40;;;;;;5099218;28;19916;-67
2023/09/03 02:18:11;;;;;;;;;;;19.10;96.60;;;;;;5106078;28;19908;-66
2023/09/03 02:20:37;;;;;;;;;;;18.90;96.60;;;;;;5115900;28;19908;-67
2023/09/03 02:23:04;;;;;;;;;;;18.80;97.00;;;;;;5108343;28;19912;-68
2023/09/03 02:25:31;;;;;;;;;;;18.90;97.20;;;;;;5094780;28;20004;-67
2023/09/03 02:27:57;;;;;;;;;;;19.10;97.10;;;;;;5103818;28;20403;-66
2023/09/03 02:30:24;;;;;;;;;;;19.20;96.90;;;;;;5115234;28;19952;-65
2023/09/03 02:32:50;;;;;;;;;;;19.40;96.70;;;;;;5113605;28;19919;-67
2023/09/03 02:35:17;;;;;;;;;;;19.50;96.50;;;;;;5115788;28;20265;-65
2023/09/03 02:37:44;;;;;;;;;;;19.50;96.50;;;;;;5114995;28;19933;-66
2023/09/03 02:40:10;;;;;;;;;;;19.60;96.90;;;;;;5114535;28;19908;-65
2023/09/03 02:42:37;;;;;;;;;;;19.90;97.40;;;;;;5115323;28;19915;-66
2023/09/03 02:45:04;;;;;;;;;;;20.00;97.50;;;;;;5115111;28;20352;-67
2023/09/03 02:47:30;;;;;;;;;;;20.10;97.40;;;;;;5114858;28;19919;-65
2023/09/03 02:49:57;;;;;;;;;;;20.20;97.40;;;;;;5114890;28;20291;-65
2023/09/03 02:52:24;;;;;;;;;;;20.30;96.90;;;;;;5097684;28;19912;-67
2023/09/03 02:54:50;;;;;;;;;;;20.40;97.10;;;;;;5094036;28;20361;-68
2023/09/03 02:57:17;;;;;;;;;;;20.50;97.10;;;;;;5097648;28;19915;-68
2023/09/03 02:59:44;;;;;;;;;;;21.40;97.00;;;;;;5106368;28;19912;-67
2023/09/03 03:02:11;;;;;;;;;;;23.40;94.60;;;;;;5094294;28;19915;-67
2023/09/03 03:04:37;;;;;;;;;;;25.20;91.90;;;;;;5100569;28;19951;-67
2023/09/03 03:07:04;;;;;;;;;;;26.60;89.00;;;;;;5113412;28;20664;-68
2023/09/03 03:09:31;;;;;;;;;;;28.10;83.60;;;;;;5114579;28;19908;-68
2023/09/03 03:11:57;;;;;;;;;;;29.00;81.80;;;;;;5099114;28;20418;-66
2023/09/03 03:14:24;;;;;;;;;;;30.20;76.00;;;;;;5093699;28;19908;-67
2023/09/03 03:16:50;;;;;;;;;;;30.50;76.10;;;;;;5093923;28;20375;-68
2023/09/03 03:19:17;;;;;;;;;;;31.30;73.70;;;;;;5101046;28;19916;-67
2023/09/03 03:21:44;;;;;;;;;;;31.80;69.60;;;;;;5093685;28;20376;-67
2023/09/03 03:24:10;;;;;;;;;;;32.40;68.50;;;;;;5093667;28;19965;-69
2023/09/03 03:26:38;;;;;;;;;;;32.80;66.10;;;;;;5093581;28;19920;-67
2023/09/03 03:29:07;;;;;;;;;;;32.80;66.90;;;;;;5112149;28;19912;-68
2023/09/03 03:31:34;;;;;;;;;;;32.90;65.20;;;;;;5113829;28;19907;-68
2023/09/03 03:34:01;;;;;;;;;;;32.90;65.20;;;;;;5104491;28;19954;-67
2023/09/03 03:36:29;;;;;;;;;;;33.70;64.10;;;;;;5105569;28;20001;-66
2023/09/03 03:38:56;;;;;;;;;;;34.40;62.00;;;;;;5110640;28;19995;-67
2023/09/03 03:41:22;;;;;;;;;;;33.80;61.60;;;;;;5114071;28;19908;-70
2023/09/03 03:43:50;;;;;;;;;;;33.10;62.30;;;;;;5114182;28;19907;-67
2023/09/03 03:46:18;;;;;;;;;;;32.90;61.80;;;;;;5112114;28;19920;-68
2023/09/03 03:48:45;;;;;;;;;;;32.90;62.80;;;;;;5113696;28;19912;-67
2023/09/03 03:51:13;;;;;;;;;;;33.00;62.50;;;;;;5113859;28;19919;-68
2023/09/03 03:53:40;;;;;;;;;;;32.80;62.20;;;;;;5113974;28;19915;-65
2023/09/03 03:56:08;;;;;;;;;;;32.70;61.80;;;;;;5093356;28;20010;-68
2023/09/03 03:58:35;;;;;;;;;;;32.80;61.70;;;;;;5107330;28;19918;-69
2023/09/03 04:01:10;;;;;;;;;;;33.20;62.00;;;;;;5113777;28;19908;-68
2023/09/03 04:03:37;;;;;;;;;;;33.40;60.70;;;;;;5113894;28;19912;-68
2023/09/03 04:06:04;;;;;;;;;;;33.20;61.00;;;;;;5094162;28;20276;-68
2023/09/03 04:08:32;;;;;;;;;;;33.00;60.90;;;;;;5113356;28;19919;-67
2023/09/03 04:10:59;;;;;;;;;;;33.30;61.50;;;;;;5113441;28;19911;-69
2023/09/03 04:13:26;;;;;;;;;;;33.80;60.20;;;;;;5111618;28;19911;-69
2023/09/03 04:15:54;;;;;;;;;;;33.60;60.70;;;;;;5112536;28;19912;-67
2023/09/03 04:18:20;;;;;;;;;;;32.40;60.50;;;;;;5112712;28;19912;-67
2023/09/03 04:20:47;;;;;;;;;;;31.40;62.10;;;;;;5113624;28;19915;-68
2023/09/03 04:23:14;;;;;;;;;;;31.20;63.60;;;;;;5113867;28;19908;-67
2023/09/03 04:25:40;;;;;;;;;;;31.90;61.60;;;;;;5102988;28;19912;-66
2023/09/03 04:28:07;;;;;;;;;;;31.70;61.80;;;;;;5102842;28;19969;-67
2023/09/03 04:30:38;;;;;;;;;;;32.50;61.80;;;;;;5113035;28;19908;-65
2023/09/03 04:33:07;;;;;;;;;;;33.30;59.90;;;;;;5112112;28;19921;-67
2023/09/03 04:35:34;;;;;;;;;;;33.80;59.90;;;;;;5112547;28;19915;-71
2023/09/03 04:38:00;;;;;;;;;;;32.50;60.10;;;;;;5112753;28;19908;-68
2023/09/03 04:40:27;;;;;;;;;;;32.80;60.30;;;;;;5112325;28;19919;-69
2023/09/03 04:42:53;;;;;;;;;;;33.10;62.00;;;;;;5094937;28;20365;-67
2023/09/03 04:45:20;;;;;;;;;;;33.70;60.00;;;;;;5092055;28;19912;-66
2023/09/03 04:47:47;;;;;;;;;;;33.40;59.20;;;;;;5099341;28;19916;-68
2023/09/03 04:50:13;;;;;;;;;;;33.20;60.40;;;;;;5112785;28;19915;-68
2023/09/03 04:52:42;;;;;;;;;;;33.50;59.90;;;;;;5112823;28;19908;-67
2023/09/03 04:55:09;;;;;;;;;;;32.70;59.70;;;;;;5112648;28;19912;-68
2023/09/03 04:57:35;;;;;;;;;;;32.20;61.10;;;;;;5112183;28;19908;-67
2023/09/03 05:00:03;;;;;;;;;;;32.70;59.90;;;;;;5112971;28;19907;-68
2023/09/03 05:02:31;;;;;;;;;;;33.30;58.60;;;;;;5113032;28;19953;-68
2023/09/03 05:04:58;;;;;;;;;;;33.90;58.70;;;;;;5099812;28;19998;-66
2023/09/03 05:07:25;;;;;;;;;;;34.30;57.20;;;;;;5093464;28;19975;-67
2023/09/03 05:09:55;;;;;;;;;;;33.80;57.70;;;;;;5092522;28;19908;-67
2023/09/03 05:12:22;;;;;;;;;;;33.00;59.00;;;;;;5086436;28;19964;-67
2023/09/03 05:14:49;;;;;;;;;;;31.70;61.30;;;;;;5112528;28;19912;-66
2023/09/03 05:17:15;;;;;;;;;;;32.10;60.90;;;;;;5111852;28;19907;-67
2023/09/03 05:19:42;;;;;;;;;;;32.10;59.80;;;;;;5094196;28;19914;-68
2023/09/03 05:22:09;;;;;;;;;;;32.70;59.50;;;;;;5112752;28;20002;-66
2023/09/03 05:24:36;;;;;;;;;;;33.00;58.90;;;;;;5100721;28;20314;-68
2023/09/03 05:27:03;;;;;;;;;;;33.30;58.80;;;;;;5093013;28;19975;-68
2023/09/03 05:29:30;;;;;;;;;;;33.10;59.90;;;;;;5111259;28;19998;-67
2023/09/03 05:31:56;;;;;;;;;;;33.40;59.40;;;;;;5093371;28;20224;-67
2023/09/03 05:34:24;;;;;;;;;;;33.30;58.60;;;;;;5106607;28;19950;-68
2023/09/03 05:36:51;;;;;;;;;;;33.60;58.30;;;;;;5091963;28;19920;-67
2023/09/03 05:39:18;;;;;;;;;;;32.70;58.70;;;;;;5092030;28;19909;-68
2023/09/03 05:41:45;;;;;;;;;;;31.70;60.00;;;;;;5111207;28;19908;-67
2023/09/03 05:44:13;;;;;;;;;;;31.70;60.30;;;;;;5114369;28;19912;-67
2023/09/03 05:46:39;;;;;;;;;;;32.30;60.10;;;;;;5115975;28;19971;-66
2023/09/03 05:49:06;;;;;;;;;;;32.20;59.30;;;;;;5116667;28;19907;-67
2023/09/03 05:51:33;;;;;;;;;;;32.10;60.60;;;;;;5115756;28;19938;-69
2023/09/03 05:53:59;;;;;;;;;;;32.30;59.80;;;;;;5095803;28;19948;-68
2023/09/03 05:56:26;;;;;;;;;;;32.70;59.40;;;;;;5095878;28;19956;-68
2023/09/03 05:58:53;;;;;;;;;;;32.70;60.20;;;;;;5095711;28;20010;-67
2023/09/03 06:01:20;;;;;;;;;;;32.60;59.20;;;;;;5108405;28;19938;-68
2023/09/03 06:03:46;;;;;;;;;;;32.70;60.30;;;;;;5095465;28;19912;-68
2023/09/03 06:06:13;;;;;;;;;;;32.50;59.40;;;;;;5110792;28;19920;-69
2023/09/03 06:08:41;;;;;;;;;;;31.50;60.60;;;;;;5115573;28;19908;-67
2023/09/03 06:11:08;;;;;;;;;;;30.20;61.80;;;;;;5113498;28;19907;-67
2023/09/03 06:13:35;;;;;;;;;;;29.60;64.00;;;;;;5095256;28;19908;-69
2023/09/03 06:16:02;;;;;;;;;;;29.60;63.30;;;;;;5105935;28;19908;-66
2023/09/03 06:18:28;;;;;;;;;;;29.60;64.30;;;;;;5115727;28;20327;-68
2023/09/03 06:20:55;;;;;;;;;;;29.90;64.00;;;;;;5114034;28;19953;-68
2023/09/03 06:23:22;;;;;;;;;;;30.30;62.30;;;;;;5114477;28;20041;-66
2023/09/03 06:25:49;;;;;;;;;;;30.50;63.10;;;;;;5104506;28;19951;-68
2023/09/03 06:28:15;;;;;;;;;;;30.60;61.70;;;;;;5112863;28;19911;-66
2023/09/03 06:30:42;;;;;;;;;;;30.30;63.10;;;;;;5114899;28;20246;-67
2023/09/03 06:33:11;;;;;;;;;;;30.60;62.50;;;;;;5111556;27;19907;-69
2023/09/03 06:35:38;;;;;;;;;;;30.60;61.10;;;;;;5112092;28;20321;-67
2023/09/03 06:38:04;;;;;;;;;;;30.40;61.50;;;;;;5114445;28;19915;-66
2023/09/03 06:40:31;;;;;;;;;;;29.30;62.80;;;;;;5114646;28;20329;-67
2023/09/03 06:42:58;;;;;;;;;;;28.70;64.50;;;;;;5114490;28;19911;-67
2023/09/03 06:45:24;;;;;;;;;;;29.10;64.30;;;;;;5115105;28;19912;-67
2023/09/03 06:47:51;;;;;;;;;;;28.80;64.20;;;;;;5110156;28;19920;-66
2023/09/03 06:50:18;;;;;;;;;;;27.90;65.70;;;;;;5112259;28;19916;-68
2023/09/03 06:52:44;;;;;;;;;;;27.20;65.80;;;;;;5113815;28;19961;-67
2023/09/03 06:55:11;;;;;;;;;;;26.10;67.50;;;;;;5115013;28;19911;-67
2023/09/03 06:57:38;;;;;;;;;;;25.10;69.00;;;;;;5114048;28;19912;-67
2023/09/03 07:00:06;;;;;;;;;;;23.80;71.60;;;;;;5115220;28;20326;-68
2023/09/03 07:02:33;;;;;;;;;;;22.70;74.40;;;;;;5113713;28;19908;-66
2023/09/03 07:05:00;;;;;;;;;;;21.90;77.00;;;;;;5115316;28;19908;-68
2023/09/03 07:07:27;;;;;;;;;;;21.30;78.80;;;;;;5114738;28;20403;-69
2023/09/03 07:09:54;;;;;;;;;;;20.90;80.30;;;;;;5114774;28;20261;-67
2023/09/03 07:12:21;;;;;;;;;;;20.30;81.80;;;;;;5109658;28;19954;-69
2023/09/03 07:14:48;;;;;;;;;;;20.00;83.40;;;;;;5094590;28;19919;-66
2023/09/03 07:17:15;;;;;;;;;;;19.50;84.60;;;;;;5094099;28;20376;-68
2023/09/03 07:19:41;;;;;;;;;;;19.30;86.10;;;;;;5101391;28;20387;-68
2023/09/03 07:22:08;;;;;;;;;;;19.10;87.20;;;;;;5113213;28;19908;-69
2023/09/03 07:24:35;;;;;;;;;;;19.00;88.00;;;;;;5098454;28;20003;-67
2023/09/03 07:27:01;;;;;;;;;;;18.70;89.30;;;;;;5092416;28;20346;-68
2023/09/03 07:29:28;;;;;;;;;;;18.30;90.10;;;;;;5092618;28;19908;-67
2023/09/03 07:31:55;;;;;;;;;;;18.20;90.60;;;;;;5092156;28;19973;-67
2023/09/03 07:34:21;;;;;;;;;;;18.00;91.00;;;;;;5092455;28;19904;-67
2023/09/03 07:36:48;;;;;;;;;;;17.90;91.30;;;;;;5094259;28;20379;-67
2023/09/03 07:39:15;;;;;;;;;;;17.80;91.80;;;;;;5094451;28;19908;-67
2023/09/03 07:41:41;;;;;;;;;;;17.70;92.50;;;;;;5094672;28;20276;-66
2023/09/03 07:44:08;;;;;;;;;;;17.60;92.50;;;;;;5094169;28;19916;-67
2023/09/03 07:46:35;;;;;;;;;;;17.60;93.30;;;;;;5093763;28;19923;-66
2023/09/03 07:49:01;;;;;;;;;;;17.50;93.10;;;;;;5094988;28;19919;-69
2023/09/03 07:51:28;;;;;;;;;;;17.40;94.00;;;;;;5104495;28;19911;-66
2023/09/03 07:53:54;;;;;;;;;;;17.40;94.60;;;;;;5106616;28;19918;-66
2023/09/03 07:56:21;;;;;;;;;;;17.20;94.50;;;;;;5096382;28;20339;-67
2023/09/03 07:58:48;;;;;;;;;;;17.00;94.80;;;;;;5093127;28;19908;-68
2023/09/03 08:01:16;;;;;;;;;;;17.00;95.60;;;;;;5092747;28;20427;-66
2023/09/03 08:03:43;;;;;;;;;;;16.90;96.20;;;;;;5109162;28;19912;-67
2023/09/03 08:06:10;;;;;;;;;;;16.90;96.10;;;;;;5092187;28;19966;-67
2023/09/03 08:08:38;;;;;;;;;;;16.80;96.20;;;;;;5093394;28;19973;-70
2023/09/03 08:11:05;;;;;;;;;;;16.60;96.30;;;;;;5099209;28;19908;-68
2023/09/03 08:13:32;;;;;;;;;;;16.60;96.90;;;;;;5092602;28;20002;-68
2023/09/03 08:15:58;;;;;;;;;;;16.50;97.10;;;;;;5093655;28;19911;-66
2023/09/03 08:18:25;;;;;;;;;;;16.50;97.40;;;;;;5094684;28;20377;-69
2023/09/03 08:20:52;;;;;;;;;;;16.40;97.60;;;;;;5092419;28;19908;-65
2023/09/03 08:23:19;;;;;;;;;;;16.40;98.20;;;;;;5092669;28;20525;-65
2023/09/03 08:25:46;;;;;;;;;;;16.30;98.70;;;;;;5079031;28;20490;-66
2023/09/03 08:28:13;;;;;;;;;;;16.30;99.20;;;;;;5105966;28;19916;-68
2023/09/03 08:30:39;;;;;;;;;;;16.30;99.20;;;;;;5092175;28;19908;-67
2023/09/03 08:33:06;;;;;;;;;;;16.20;99.60;;;;;;5092399;28;19916;-67
2023/09/03 08:35:34;;;;;;;;;;;16.20;99.90;;;;;;5093300;28;20380;-68
2023/09/03 08:38:01;;;;;;;;;;;16.10;99.90;;;;;;5102682;28;20277;-67
2023/09/03 08:40:28;;;;;;;;;;;16.20;99.90;;;;;;5092211;28;19915;-66
2023/09/03 08:42:54;;;;;;;;;;;16.20;99.90;;;;;;5092458;28;19912;-67
2023/09/03 08:45:22;;;;;;;;;;;16.10;99.90;;;;;;5092152;28;19915;-68
2023/09/03 08:47:49;;;;;;;;;;;16.10;99.90;;;;;;5075301;28;19962;-66
2023/09/03 08:50:20;;;;;;;;;;;16.00;99.90;;;;;;5091454;28;20259;-67
2023/09/03 08:52:47;;;;;;;;;;;15.90;99.90;;;;;;5094838;28;19913;-66
2023/09/03 08:55:14;;;;;;;;;;;16.00;99.90;;;;;;5103403;28;19912;-65
2023/09/03 08:57:41;;;;;;;;;;;15.90;99.90;;;;;;5098808;28;20029;-67
2023/09/03 09:00:10;;;;;;;;;;;15.80;99.90;;;;;;5107242;28;19912;-70
2023/09/03 09:02:37;;;;;;;;;;;15.80;99.90;;;;;;5107794;28;20022;-67
2023/09/03 09:05:05;;;;;;;;;;;15.80;99.90;;;;;;5099722;28;19912;-66
2023/09/03 09:07:33;;;;;;;;;;;15.80;99.90;;;;;;5098755;28;19926;-68
2023/09/03 09:10:04;;;;;;;;;;;15.70;99.90;;;;;;5112782;28;20419;-67
2023/09/03 09:12:46;;;;;;;;;;;15.80;99.90;;;;;;5105523;28;19912;-69
2023/09/03 09:15:13;;;;;;;;;;;15.70;99.90;;;;;;5117827;28;19963;-66
2023/09/03 09:17:40;;;;;;;;;;;15.70;99.90;;;;;;5098863;28;19908;-68
2023/09/03 09:20:07;;;;;;;;;;;15.60;99.90;;;;;;5102949;28;19965;-71
2023/09/03 09:22:41;;;;;;;;;;;15.60;99.90;;;;;;5116424;28;20356;-67
2023/09/03 09:25:08;;;;;;;;;;;15.60;99.90;;;;;;5116357;28;19912;-67
2023/09/03 09:27:38;;;;;;;;;;;15.60;99.90;;;;;;5095179;28;19930;-69
2023/09/03 09:30:12;;;;;;;;;;;15.50;99.90;;;;;;5115305;27;19916;-69
2023/09/03 09:32:43;;;;;;;;;;;15.50;99.90;;;;;;5080484;28;19916;-69
2023/09/03 09:35:10;;;;;;;;;;;15.50;99.90;;;;;;5115213;27;19938;-64
2023/09/03 09:37:38;;;;;;;;;;;15.50;99.90;;;;;;5106681;27;19919;-67
2023/09/03 09:40:05;;;;;;;;;;;15.50;99.90;;;;;;5109141;28;19912;-65
2023/09/03 09:42:32;;;;;;;;;;;15.40;99.90;;;;;;5109485;28;19912;-66
2023/09/03 09:44:59;;;;;;;;;;;15.50;99.90;;;;;;5115893;28;19923;-67
2023/09/03 09:47:27;;;;;;;;;;;15.40;99.90;;;;;;5111712;28;19947;-67
2023/09/03 09:49:54;;;;;;;;;;;15.40;99.90;;;;;;5115834;27;19911;-67
2023/09/03 09:52:20;;;;;;;;;;;15.40;99.90;;;;;;5115701;28;19907;-65
2023/09/03 09:54:48;;;;;;;;;;;15.30;99.90;;;;;;5115675;28;19937;-67
2023/09/03 09:57:21;;;;;;;;;;;15.30;99.90;;;;;;5106535;28;20312;-68
2023/09/03 09:59:55;;;;;;;;;;;15.20;99.90;;;;;;5113671;27;19956;-66
2023/09/03 10:02:22;;;;;;;;;;;15.20;99.90;;;;;;5114737;28;19918;-67
2023/09/03 10:04:50;;;;;;;;;;;15.10;99.90;;;;;;5115647;27;19937;-65
2023/09/03 10:07:16;;;;;;;;;;;15.00;99.90;;;;;;5108328;28;19920;-68
2023/09/03 10:09:44;;;;;;;;;;;15.00;99.90;;;;;;5113861;28;19923;-66
2023/09/03 10:12:11;;;;;;;;;;;15.00;99.90;;;;;;5113970;28;19912;-66
2023/09/03 10:14:38;;;;;;;;;;;14.90;99.90;;;;;;5114983;27;19916;-66
2023/09/03 10:17:06;;;;;;;;;;;14.90;99.90;;;;;;5088198;28;19910;-67
2023/09/03 10:19:44;;;;;;;;;;;14.80;99.90;;;;;;5110686;28;19911;-66
2023/09/03 10:22:14;;;;;;;;;;;14.80;99.90;;;;;;5114682;28;19908;-65
2023/09/03 10:24:43;;;;;;;;;;;14.70;99.90;;;;;;5114877;27;19976;-67
2023/09/03 10:27:12;;;;;;;;;;;14.70;99.90;;;;;;5106538;28;20011;-68
2023/09/03 10:29:39;;;;;;;;;;;14.70;99.90;;;;;;5111507;27;19950;-68
2023/09/03 10:32:06;;;;;;;;;;;14.70;99.90;;;;;;5104468;28;19912;-68
2023/09/03 10:34:36;;;;;;;;;;;14.60;99.90;;;;;;5112325;27;19925;-66
2023/09/03 10:37:03;;;;;;;;;;;14.50;99.90;;;;;;5126630;27;20268;-67
2023/09/03 10:39:30;;;;;;;;;;;14.50;99.90;;;;;;5114765;28;19912;-65
2023/09/03 10:42:15;;;;;;;;;;;14.50;99.90;;;;;;5113382;28;19912;-64
2023/09/03 10:44:42;;;;;;;;;;;14.40;99.90;;;;;;5114527;28;19916;-65
2023/09/03 10:47:17;;;;;;;;;;;14.40;99.90;;;;;;5113190;28;19924;-66
2023/09/03 10:49:45;;;;;;;;;;;14.30;99.90;;;;;;5114389;28;20326;-64
2023/09/03 10:52:34;;;;;;;;;;;14.30;99.90;;;;;;5114919;28;19915;-65
2023/09/03 10:55:11;;;;;;;;;;;14.30;99.90;;;;;;5104930;28;19912;-64
2023/09/03 10:57:38;;;;;;;;;;;14.30;99.90;;;;;;5106023;28;19918;-64
2023/09/03 11:00:05;;;;;;;;;;;14.20;99.90;;;;;;5114391;28;19918;-66
2023/09/03 11:02:32;;;;;;;;;;;14.20;99.90;;;;;;5127409;27;19955;-67
2023/09/03 11:05:09;;;;;;;;;;;14.10;99.90;;;;;;5122584;27;19947;-67
2023/09/03 11:07:35;;;;;;;;;;;14.00;99.90;;;;;;5109614;28;19932;-65
2023/09/03 11:10:21;;;;;;;;;;;13.90;99.90;;;;;;5111147;28;19957;-67
2023/09/03 11:12:51;;;;;;;;;;;14.00;99.90;;;;;;5107613;28;19911;-65
2023/09/03 11:15:18;;;;;;;;;;;13.90;99.90;;;;;;5108544;28;19926;-68
2023/09/03 11:17:55;;;;;;;;;;;13.90;99.90;;;;;;5109050;28;19908;-66
2023/09/03 11:20:32;;;;;;;;;;;13.90;99.90;;;;;;5113438;28;19937;-66
2023/09/03 11:22:59;;;;;;;;;;;13.80;99.90;;;;;;5113485;28;19930;-67
2023/09/03 11:25:32;;;;;;;;;;;13.80;99.90;;;;;;5114440;28;19989;-66
2023/09/03 11:27:59;;;;;;;;;;;13.70;99.90;;;;;;5099881;28;20447;-67
2023/09/03 11:30:26;;;;;;;;;;;13.70;99.90;;;;;;5107447;28;20388;-66
2023/09/03 11:32:52;;;;;;;;;;;13.70;99.90;;;;;;5094080;28;19910;-66
2023/09/03 11:35:19;;;;;;;;;;;13.70;99.90;;;;;;5093989;28;19954;-65
2023/09/03 11:37:46;;;;;;;;;;;13.70;99.90;;;;;;5093665;28;19908;-66
2023/09/03 11:40:13;;;;;;;;;;;13.60;99.90;;;;;;5093593;28;19915;-66
2023/09/03 11:42:43;;;;;;;;;;;13.50;99.90;;;;;;5088139;28;19908;-67
2023/09/03 11:45:11;;;;;;;;;;;13.40;99.90;;;;;;5111703;28;19937;-66
2023/09/03 11:47:46;;;;;;;;;;;13.50;99.90;;;;;;5101374;28;20015;-67
2023/09/03 11:50:13;;;;;;;;;;;13.50;99.90;;;;;;5109211;28;19924;-67
2023/09/03 11:52:50;;;;;;;;;;;13.40;99.90;;;;;;5113806;28;19904;-67
2023/09/03 11:55:16;;;;;;;;;;;13.40;99.90;;;;;;5112173;28;19919;-68
2023/09/03 11:57:46;;;;;;;;;;;13.40;99.90;;;;;;5111571;28;19999;-67
2023/09/03 12:00:13;;;;;;;;;;;13.40;99.90;;;;;;5113624;28;19911;-68
2023/09/03 12:02:40;;;;;;;;;;;13.40;99.90;;;;;;5113374;28;20305;-66
2023/09/03 12:05:07;;;;;;;;;;;13.30;99.90;;;;;;5112415;28;19961;-66
2023/09/03 12:07:34;;;;;;;;;;;13.30;99.90;;;;;;5100102;28;19924;-67
2023/09/03 12:10:01;;;;;;;;;;;13.30;99.90;;;;;;5092610;28;19933;-66
2023/09/03 12:12:27;;;;;;;;;;;13.30;99.90;;;;;;5105590;28;20321;-65
2023/09/03 12:14:54;;;;;;;;;;;13.20;99.90;;;;;;5095383;28;19915;-67
2023/09/03 12:17:24;;;;;;;;;;;13.20;99.90;;;;;;5098907;28;19912;-66
2023/09/03 12:19:51;;;;;;;;;;;13.10;99.90;;;;;;5093456;28;19908;-66
2023/09/03 12:22:19;;;;;;;;;;;13.10;99.90;;;;;;5093212;28;19908;-67
2023/09/03 12:24:49;;;;;;;;;;;13.10;99.90;;;;;;5092534;28;19919;-66
2023/09/03 12:27:16;;;;;;;;;;;13.10;99.90;;;;;;5093005;28;19955;-64
2023/09/03 12:29:43;;;;;;;;;;;13.10;99.90;;;;;;5099345;28;20418;-67
2023/09/03 12:32:10;;;;;;;;;;;13.00;99.90;;;;;;5113228;28;20265;-66
2023/09/03 12:34:39;;;;;;;;;;;13.00;99.90;;;;;;5113018;28;19914;-66
2023/09/03 12:37:06;;;;;;;;;;;12.90;99.90;;;;;;5104620;28;19923;-66
2023/09/03 12:39:34;;;;;;;;;;;13.00;99.90;;;;;;5093253;28;19912;-65
2023/09/03 12:42:01;;;;;;;;;;;12.90;99.90;;;;;;5058558;28;19965;-66
2023/09/03 12:44:28;;;;;;;;;;;12.90;99.90;;;;;;5092883;28;19915;-67
2023/09/03 12:46:59;;;;;;;;;;;12.90;99.90;;;;;;5092197;28;19924;-66
2023/09/03 12:49:28;;;;;;;;;;;12.90;99.90;;;;;;5092930;28;19919;-67
2023/09/03 12:51:58;;;;;;;;;;;12.90;99.90;;;;;;5098097;28;19918;-66
2023/09/03 12:54:25;;;;;;;;;;;12.80;99.90;;;;;;5109542;28;19935;-66
2023/09/03 12:56:53;;;;;;;;;;;12.90;99.90;;;;;;5111285;28;19912;-65
2023/09/03 12:59:20;;;;;;;;;;;12.80;99.90;;;;;;5110646;28;19932;-67
2023/09/03 13:01:47;;;;;;;;;;;12.80;99.90;;;;;;5111590;28;19915;-67
2023/09/03 13:04:14;;;;;;;;;;;12.80;99.90;;;;;;5112056;28;19915;-67
2023/09/03 13:06:41;;;;;;;;;;;12.70;99.90;;;;;;5108988;28;19919;-66
2023/09/03 13:09:10;;;;;;;;;;;12.70;99.90;;;;;;5108982;28;19918;-66
2023/09/03 13:11:37;;;;;;;;;;;12.70;99.90;;;;;;5111685;28;19908;-67
2023/09/03 13:14:04;;;;;;;;;;;12.60;99.90;;;;;;5108239;28;20383;-68
2023/09/03 13:16:31;;;;;;;;;;;12.60;99.90;;;;;;5111475;28;19911;-71
2023/09/03 13:18:57;;;;;;;;;;;12.70;99.90;;;;;;5113169;28;19947;-69
2023/09/03 13:21:25;;;;;;;;;;;12.70;99.90;;;;;;5110033;28;19953;-70
2023/09/03 13:23:51;;;;;;;;;;;12.60;99.90;;;;;;5112544;28;20348;-66
2023/09/03 13:26:18;;;;;;;;;;;12.60;99.90;;;;;;5112501;28;19924;-68
2023/09/03 13:28:44;;;;;;;;;;;12.60;99.90;;;;;;5113004;28;19908;-66
2023/09/03 13:31:11;;;;;;;;;;;12.60;99.90;;;;;;5113675;28;19982;-67
2023/09/03 13:33:39;;;;;;;;;;;12.60;99.90;;;;;;5113193;28;20002;-65
2023/09/03 13:36:10;;;;;;;;;;;12.40;99.90;;;;;;5111707;28;19911;-67
2023/09/03 13:38:37;;;;;;;;;;;12.50;99.90;;;;;;5110463;28;19964;-67
2023/09/03 13:41:04;;;;;;;;;;;12.40;99.90;;;;;;5092433;28;19908;-68
2023/09/03 13:43:31;;;;;;;;;;;12.50;99.90;;;;;;5092242;28;19916;-69
2023/09/03 13:45:59;;;;;;;;;;;12.40;99.90;;;;;;5091962;28;20379;-67
2023/09/03 13:48:25;;;;;;;;;;;12.40;99.90;;;;;;5092293;28;20014;-68
2023/09/03 13:50:54;;;;;;;;;;;12.40;99.90;;;;;;5093478;28;19908;-66
2023/09/03 13:53:21;;;;;;;;;;;12.50;99.90;;;;;;5112527;28;19908;-66
2023/09/03 13:55:47;;;;;;;;;;;12.40;99.90;;;;;;5112560;28;19962;-65
2023/09/03 13:58:14;;;;;;;;;;;12.30;99.90;;;;;;5112654;28;19915;-66
2023/09/03 14:00:41;;;;;;;;;;;12.30;99.90;;;;;;5112732;28;19955;-66
2023/09/03 14:03:08;;;;;;;;;;;12.40;99.90;;;;;;5109852;28;20010;-67
2023/09/03 14:05:35;;;;;;;;;;;12.40;99.90;;;;;;5093432;28;19931;-66
2023/09/03 14:08:02;;;;;;;;;;;12.30;99.90;;;;;;5095782;28;19916;-65
2023/09/03 14:10:28;;;;;;;;;;;12.30;99.90;;;;;;5113375;28;19934;-67
2023/09/03 14:12:55;;;;;;;;;;;12.30;99.90;;;;;;5116198;28;19957;-67
2023/09/03 14:15:22;;;;;;;;;;;12.20;99.90;;;;;;5116175;28;19912;-66
2023/09/03 14:17:48;;;;;;;;;;;12.20;99.90;;;;;;5115882;28;19908;-67
2023/09/03 14:20:15;;;;;;;;;;;12.20;99.90;;;;;;5115783;28;19912;-67